createdAt,value
2019-02-25T00:02:27.547Z,62.22
2019-02-25T00:04:59.271Z,61.63
2019-02-25T00:07:30.814Z,61.24
2019-02-25T00:10:02.057Z,61.00
2019-02-25T00:12:33.726Z,61.09
2019-02-25T00:15:05.482Z,61.05
2019-02-25T00:17:39.144Z,60.69
2019-02-25T00:20:11.766Z,60.24
2019-02-25T00:22:43.294Z,61.11
2019-02-25T00:25:14.855Z,62.05
2019-02-25T00:27:47.474Z,62.30
2019-02-25T00:30:20.859Z,62.16
2019-02-25T00:32:52.114Z,63.07
2019-02-25T00:35:23.880Z,63.67
2019-02-25T00:37:55.107Z,63.67
2019-02-25T00:40:27.657Z,63.74
2019-02-25T00:43:00.188Z,64.17
2019-02-25T00:45:31.972Z,63.83
2019-02-25T00:48:03.523Z,64.45
2019-02-25T00:50:34.973Z,64.66
2019-02-25T00:53:06.487Z,64.49
2019-02-25T00:55:38.024Z,64.79
2019-02-25T00:58:09.702Z,64.51
2019-02-25T01:00:40.958Z,65.02
2019-02-25T01:03:12.325Z,65.04
2019-02-25T01:05:43.798Z,65.19
2019-02-25T01:08:15.330Z,65.65
2019-02-25T01:10:47.379Z,65.96
2019-02-25T01:13:18.867Z,66.06
2019-02-25T01:15:50.171Z,66.19
2019-02-25T01:18:23.719Z,65.54
2019-02-25T01:20:55.383Z,65.50
2019-02-25T01:23:26.659Z,66.00
2019-02-25T01:25:58.011Z,65.91
2019-02-25T01:28:29.652Z,66.16
2019-02-25T01:31:01.297Z,66.16
2019-02-25T01:33:32.868Z,66.01
2019-02-25T01:36:04.997Z,66.13
2019-02-25T01:38:36.523Z,67.00
2019-02-25T01:41:07.774Z,67.01
2019-02-25T01:43:39.137Z,67.06
2019-02-25T01:46:10.401Z,66.94
2019-02-25T01:48:42.718Z,66.70
2019-02-25T01:51:14.130Z,67.25
2019-02-25T01:53:45.331Z,67.34
2019-02-25T01:56:17.269Z,67.70
2019-02-25T01:58:48.890Z,68.40
2019-02-25T02:01:20.126Z,68.21
2019-02-25T02:03:52.664Z,67.55
2019-02-25T02:06:23.976Z,67.51
2019-02-25T02:08:55.260Z,67.07
2019-02-25T02:11:26.659Z,66.56
2019-02-25T02:13:58.305Z,66.74
2019-02-25T02:16:29.549Z,66.99
2019-02-25T02:19:01.094Z,67.27
2019-02-25T02:21:32.521Z,67.44
2019-02-25T02:24:04.143Z,67.49
2019-02-25T02:26:35.839Z,67.46
2019-02-25T02:29:07.690Z,68.19
2019-02-25T02:31:39.229Z,67.89
2019-02-25T02:34:10.539Z,67.23
2019-02-25T02:36:42.215Z,66.59
2019-02-25T02:39:13.783Z,66.11
2019-02-25T02:42:29.220Z,65.31
2019-02-25T02:45:13.284Z,64.64
2019-02-25T02:48:01.683Z,64.22
2019-02-25T02:50:32.960Z,63.82
2019-02-25T02:53:04.711Z,64.63
2019-02-25T02:55:36.300Z,64.63
2019-02-25T02:58:07.656Z,64.49
2019-02-25T03:00:38.946Z,64.05
2019-02-25T03:03:10.859Z,63.42
2019-02-25T03:05:42.079Z,63.33
2019-02-25T03:08:13.305Z,64.27
2019-02-25T03:10:44.930Z,64.99
2019-02-25T03:13:16.226Z,64.96
2019-02-25T03:15:48.141Z,65.43
2019-02-25T03:18:19.460Z,65.68
2019-02-25T03:20:50.696Z,66.26
2019-02-25T03:23:22.313Z,66.79
2019-02-25T03:25:53.647Z,66.53
2019-02-25T03:28:25.358Z,66.51
2019-02-25T03:30:56.735Z,66.84
2019-02-25T03:33:28.312Z,67.13
2019-02-25T03:35:59.631Z,66.73
2019-02-25T03:38:31.173Z,66.93
2019-02-25T03:41:02.897Z,66.85
2019-02-25T03:43:35.178Z,67.52
2019-02-25T03:46:06.527Z,67.75
2019-02-25T03:48:38.259Z,67.79
2019-02-25T03:51:09.552Z,68.05
2019-02-25T03:53:41.100Z,67.55
2019-02-25T03:56:12.521Z,68.12
2019-02-25T03:58:43.779Z,68.12
2019-02-25T04:01:15.005Z,68.51
2019-02-25T04:03:46.324Z,68.11
2019-02-25T04:06:17.988Z,68.05
2019-02-25T04:08:49.549Z,68.44
2019-02-25T04:11:21.003Z,68.53
2019-02-25T04:13:52.934Z,68.96
2019-02-25T04:16:24.226Z,69.04
2019-02-25T04:18:55.949Z,69.61
2019-02-25T04:21:27.313Z,69.26
2019-02-25T04:23:58.970Z,69.46
2019-02-25T04:26:30.965Z,68.79
2019-02-25T04:29:02.540Z,68.85
2019-02-25T04:31:34.379Z,68.76
2019-02-25T04:34:08.287Z,68.69
2019-02-25T04:36:40.988Z,69.06
2019-02-25T04:39:12.986Z,69.05
2019-02-25T04:41:46.679Z,69.36
2019-02-25T04:44:18.512Z,69.33
2019-02-25T04:46:50.080Z,69.21
2019-02-25T04:49:21.388Z,70.46
2019-02-25T04:51:52.656Z,69.95
2019-02-25T04:54:24.292Z,70.07
2019-02-25T04:56:55.593Z,70.07
2019-02-25T04:59:26.893Z,70.03
2019-02-25T05:01:58.417Z,70.15
2019-02-25T05:04:30.058Z,69.51
2019-02-25T05:07:01.330Z,69.88
2019-02-25T05:09:32.558Z,70.01
2019-02-25T05:12:05.117Z,69.59
2019-02-25T05:14:36.335Z,71.01
2019-02-25T05:17:08.216Z,71.40
2019-02-25T05:19:40.783Z,71.40
2019-02-25T05:22:12.856Z,70.45
2019-02-25T05:24:47.994Z,70.21
2019-02-25T05:27:19.595Z,70.20
2019-02-25T05:29:51.785Z,70.22
2019-02-25T05:32:23.472Z,70.37
2019-02-25T05:34:55.062Z,70.46
2019-02-25T05:37:26.819Z,70.76
2019-02-25T05:39:58.408Z,70.62
2019-02-25T05:42:30.048Z,71.05
2019-02-25T05:45:01.318Z,71.37
2019-02-25T05:47:32.846Z,71.01
2019-02-25T05:50:05.109Z,71.14
2019-02-25T05:52:36.370Z,71.35
2019-02-25T05:55:09.587Z,71.60
2019-02-25T05:57:41.529Z,71.70
2019-02-25T06:00:20.195Z,72.41
2019-02-25T06:02:51.818Z,73.15
2019-02-25T06:05:24.203Z,72.51
2019-02-25T06:07:55.501Z,71.32
2019-02-25T06:10:26.868Z,72.21
2019-02-25T06:12:58.205Z,72.01
2019-02-25T06:15:29.405Z,72.41
2019-02-25T06:18:00.972Z,71.92
2019-02-25T06:20:32.197Z,71.54
2019-02-25T06:23:03.440Z,71.42
2019-02-25T06:25:35.081Z,71.46
2019-02-25T06:28:07.006Z,71.71
2019-02-25T06:30:38.272Z,73.00
2019-02-25T06:33:09.805Z,73.61
2019-02-25T06:35:41.090Z,73.34
2019-02-25T06:38:12.327Z,72.02
2019-02-25T06:40:43.931Z,72.29
2019-02-25T06:43:15.264Z,72.18
2019-02-25T06:45:46.825Z,71.66
2019-02-25T06:48:18.107Z,72.08
2019-02-25T06:50:49.744Z,73.11
2019-02-25T06:53:21.317Z,72.88
2019-02-25T06:55:52.920Z,72.48
2019-02-25T06:58:25.699Z,72.99
2019-02-25T07:00:56.930Z,73.02
2019-02-25T07:03:28.524Z,73.68
2019-02-25T07:06:09.238Z,73.63
2019-02-25T07:09:09.302Z,73.31
2019-02-25T07:12:02.210Z,72.49
2019-02-25T07:14:42.506Z,72.92
2019-02-25T07:17:32.732Z,72.92
2019-02-25T07:20:31.313Z,72.47
2019-02-25T07:23:27.379Z,73.11
2019-02-25T07:26:27.575Z,72.17
2019-02-25T07:29:11.843Z,72.93
2019-02-25T07:32:02.328Z,72.47
2019-02-25T07:34:55.293Z,72.23
2019-02-25T07:37:37.998Z,71.74
2019-02-25T07:40:31.459Z,71.41
2019-02-25T07:43:20.609Z,69.62
2019-02-25T07:46:08.637Z,69.23
2019-02-25T07:48:59.126Z,69.26
2019-02-25T07:58:18.466Z,67.61
2019-02-25T08:01:07.501Z,65.41
2019-02-25T08:04:03.644Z,65.86
2019-02-25T08:06:52.342Z,65.61
2019-02-25T08:09:51.735Z,65.19
2019-02-25T08:12:53.845Z,64.61
2019-02-25T08:15:43.106Z,63.55
2019-02-25T08:18:26.211Z,62.58
2019-02-25T08:21:15.127Z,60.89
2019-02-25T08:23:59.868Z,59.90
2019-02-25T08:26:56.564Z,58.74
2019-02-25T08:29:52.793Z,57.65
2019-02-25T08:32:41.748Z,56.03
2019-02-25T08:35:56.913Z,53.98
2019-02-25T08:38:52.757Z,53.16
2019-02-25T08:41:38.411Z,52.03
2019-02-25T08:44:38.266Z,51.46
2019-02-25T08:47:34.486Z,49.65
2019-02-25T08:50:08.154Z,48.21
2019-02-25T08:52:39.558Z,46.86
2019-02-25T08:55:11.847Z,45.85
2019-02-25T08:57:44.007Z,45.90
2019-02-25T09:00:16.095Z,44.42
2019-02-25T09:02:47.434Z,42.89
2019-02-25T09:05:19.085Z,42.37
2019-02-25T09:07:50.667Z,41.90
2019-02-25T09:10:21.963Z,41.59
2019-02-25T09:12:53.866Z,40.69
2019-02-25T09:15:27.562Z,39.61
2019-02-25T09:17:56.269Z,39.07
2019-02-25T09:20:28.150Z,39.28
2019-02-25T09:22:59.719Z,38.22
2019-02-25T09:25:30.991Z,38.33
2019-02-25T09:28:02.620Z,37.19
2019-02-25T09:30:33.866Z,36.91
2019-02-25T09:33:05.518Z,36.69
2019-02-25T09:35:36.826Z,36.91
2019-02-25T09:38:08.451Z,36.13
2019-02-25T09:40:39.719Z,35.12
2019-02-25T09:43:11.035Z,35.44
2019-02-25T09:45:42.355Z,34.81
2019-02-25T09:48:13.959Z,34.20
2019-02-25T09:50:45.662Z,34.59
2019-02-25T09:53:17.261Z,33.87
2019-02-25T09:55:48.567Z,32.84
2019-02-25T09:58:20.925Z,32.44
2019-02-25T10:00:52.281Z,33.30
2019-02-25T10:03:23.626Z,33.27
2019-02-25T10:05:55.257Z,33.40
2019-02-25T10:08:26.877Z,32.59
2019-02-25T10:10:58.466Z,32.49
2019-02-25T10:13:29.812Z,32.42
2019-02-25T10:16:01.991Z,33.11
2019-02-25T10:18:35.170Z,33.02
2019-02-25T10:21:06.470Z,32.11
2019-02-25T10:23:37.738Z,32.39
2019-02-25T10:26:09.444Z,32.03
2019-02-25T10:28:40.725Z,32.27
2019-02-25T10:31:13.141Z,31.23
2019-02-25T10:33:44.945Z,29.84
2019-02-25T10:36:16.590Z,29.25
2019-02-25T10:38:47.844Z,30.47
2019-02-25T10:41:21.206Z,30.30
2019-02-25T10:43:52.108Z,29.96
2019-02-25T10:46:23.418Z,29.47
2019-02-25T10:48:57.511Z,30.49
2019-02-25T10:51:28.094Z,29.69
2019-02-25T10:53:59.345Z,29.60
2019-02-25T10:56:40.451Z,28.57
2019-02-25T10:59:11.860Z,31.51
2019-02-25T11:01:45.782Z,30.18
2019-02-25T11:04:19.525Z,28.36
2019-02-25T11:06:50.726Z,30.58
2019-02-25T11:09:41.908Z,29.18
2019-02-25T11:12:13.821Z,28.20
2019-02-25T11:14:45.468Z,27.22
2019-02-25T11:17:18.334Z,29.06
2019-02-25T11:19:50.640Z,29.89
2019-02-25T11:22:22.256Z,29.03
2019-02-25T11:24:55.481Z,26.08
2019-02-25T11:27:28.684Z,28.06
2019-02-25T11:30:00.836Z,30.21
2019-02-25T11:32:32.176Z,25.92
2019-02-25T11:35:04.152Z,26.42
2019-02-25T11:37:36.577Z,25.78
2019-02-25T11:40:09.604Z,27.02
2019-02-25T11:42:41.839Z,27.63
2019-02-25T11:45:14.006Z,27.11
2019-02-25T11:47:45.435Z,27.74
2019-02-25T11:50:17.236Z,30.16
2019-02-25T11:52:48.836Z,28.25
2019-02-25T11:55:21.895Z,28.52
2019-02-25T11:57:53.818Z,26.47
2019-02-25T12:00:25.762Z,29.99
2019-02-25T12:02:57.669Z,28.01
2019-02-25T12:05:29.474Z,29.60
2019-02-25T12:08:01.086Z,28.37
2019-02-25T12:10:32.673Z,27.98
2019-02-25T12:13:11.791Z,27.53
2019-02-25T12:15:43.969Z,25.46
2019-02-25T12:18:15.466Z,28.08
2019-02-25T12:20:47.685Z,27.35
2019-02-25T12:23:19.836Z,28.45
2019-02-25T12:25:51.940Z,28.39
2019-02-25T12:28:23.650Z,29.03
2019-02-25T12:30:55.029Z,28.23
2019-02-25T12:33:26.337Z,27.21
2019-02-25T12:36:14.584Z,28.38
2019-02-25T12:38:49.428Z,29.52
2019-02-25T12:41:22.002Z,28.13
2019-02-25T12:43:56.270Z,26.96
2019-02-25T12:46:27.794Z,29.83
2019-02-25T12:48:59.625Z,27.51
2019-02-25T12:51:36.831Z,27.31
2019-02-25T12:54:08.140Z,29.05
2019-02-25T12:56:40.347Z,27.41
2019-02-25T12:59:11.775Z,29.74
2019-02-25T13:01:43.678Z,30.13
2019-02-25T13:04:15.574Z,28.99
2019-02-25T13:06:47.669Z,30.08
2019-02-25T13:09:19.549Z,29.55
2019-02-25T13:11:50.852Z,27.15
2019-02-25T13:14:22.201Z,28.86
2019-02-25T13:16:53.822Z,27.40
2019-02-25T13:19:25.889Z,24.69
2019-02-25T13:21:57.971Z,27.27
2019-02-25T13:24:30.843Z,25.52
2019-02-25T13:27:03.796Z,26.78
2019-02-25T13:29:36.356Z,29.97
2019-02-25T13:32:08.287Z,31.26
2019-02-25T13:34:39.867Z,28.31
2019-02-25T13:37:11.939Z,28.74
2019-02-25T13:39:43.554Z,28.22
2019-02-25T13:42:15.521Z,31.48
2019-02-25T13:44:47.113Z,28.47
2019-02-25T13:47:18.439Z,29.35
2019-02-25T13:49:49.791Z,29.89
2019-02-25T13:52:21.860Z,30.27
2019-02-25T13:54:53.718Z,31.32
2019-02-25T13:57:25.660Z,30.28
2019-02-25T13:59:57.503Z,31.09
2019-02-25T14:02:28.858Z,29.67
2019-02-25T14:05:00.343Z,29.77
2019-02-25T14:07:34.168Z,30.76
2019-02-25T14:10:07.947Z,30.73
2019-02-25T14:12:39.344Z,27.76
2019-02-25T14:15:11.548Z,31.64
2019-02-25T14:17:43.581Z,29.66
2019-02-25T14:20:17.233Z,30.54
2019-02-25T14:22:48.524Z,32.43
2019-02-25T14:25:22.013Z,31.87
2019-02-25T14:27:53.582Z,32.83
2019-02-25T14:30:25.610Z,31.27
2019-02-25T14:32:58.109Z,30.39
2019-02-25T14:35:29.741Z,30.78
2019-02-25T14:38:07.305Z,33.17
2019-02-25T14:40:39.316Z,33.26
2019-02-25T14:43:10.474Z,32.75
2019-02-25T14:45:41.982Z,31.01
2019-02-25T14:48:18.202Z,32.90
2019-02-25T14:50:47.459Z,33.03
2019-02-25T14:53:19.000Z,33.42
2019-02-25T14:55:52.381Z,33.33
2019-02-25T14:58:23.333Z,32.88
2019-02-25T15:00:54.685Z,33.41
2019-02-25T15:03:27.036Z,31.92
2019-02-25T15:05:59.612Z,32.85
2019-02-25T15:08:31.248Z,30.24
2019-02-25T15:11:04.452Z,32.97
2019-02-25T15:13:37.046Z,33.44
2019-02-25T15:16:09.251Z,33.30
2019-02-25T15:18:41.108Z,34.80
2019-02-25T15:21:15.734Z,34.43
2019-02-25T15:23:46.114Z,32.74
2019-02-25T15:26:19.874Z,34.71
2019-02-25T15:28:53.676Z,32.66
2019-02-25T15:31:24.665Z,34.32
2019-02-25T15:33:56.414Z,35.35
2019-02-25T15:36:29.029Z,35.52
2019-02-25T15:39:00.646Z,35.93
2019-02-25T15:41:32.255Z,32.89
2019-02-25T15:44:04.787Z,34.76
2019-02-25T15:46:36.855Z,35.94
2019-02-25T15:49:08.574Z,36.90
2019-02-25T15:51:41.578Z,34.75
2019-02-25T15:54:13.095Z,34.74
2019-02-25T15:56:44.388Z,36.73
2019-02-25T15:59:16.186Z,34.89
2019-02-25T16:01:48.958Z,38.74
2019-02-25T16:04:20.256Z,36.25
2019-02-25T16:06:53.757Z,37.73
2019-02-25T16:09:25.931Z,36.14
2019-02-25T16:11:59.028Z,37.03
2019-02-25T16:14:31.105Z,35.20
2019-02-25T16:17:02.834Z,34.73
2019-02-25T16:19:41.535Z,35.01
2019-02-25T16:22:09.706Z,38.76
2019-02-25T16:24:41.130Z,37.96
2019-02-25T16:27:12.751Z,35.37
2019-02-25T16:29:44.352Z,35.98
2019-02-25T16:32:16.967Z,36.24
2019-02-25T16:34:49.015Z,37.10
2019-02-25T16:37:24.200Z,36.74
2019-02-25T16:39:55.943Z,35.94
2019-02-25T16:42:28.236Z,36.02
2019-02-25T16:45:03.841Z,36.13
2019-02-25T16:47:37.553Z,37.19
2019-02-25T16:50:09.370Z,39.63
2019-02-25T16:52:42.848Z,38.48
2019-02-25T16:55:15.622Z,38.83
2019-02-25T16:57:48.024Z,40.48
2019-02-25T17:00:19.900Z,41.20
2019-02-25T17:02:51.357Z,37.67
2019-02-25T17:05:22.957Z,41.61
2019-02-25T17:07:56.168Z,39.82
2019-02-25T17:10:29.727Z,40.94
2019-02-25T17:13:00.689Z,43.01
2019-02-25T17:15:32.320Z,40.46
2019-02-25T17:18:03.964Z,40.07
2019-02-25T17:20:35.549Z,40.44
2019-02-25T17:23:09.417Z,40.56
2019-02-25T17:25:40.737Z,39.34
2019-02-25T17:28:17.037Z,37.54
2019-02-25T17:30:47.387Z,39.28
2019-02-25T17:33:19.435Z,43.31
2019-02-25T17:35:52.062Z,42.95
2019-02-25T17:38:25.109Z,43.87
2019-02-25T17:40:59.228Z,41.44
2019-02-25T17:43:31.891Z,43.16
2019-02-25T17:46:05.104Z,44.92
2019-02-25T17:48:37.539Z,46.39
2019-02-25T17:51:08.807Z,47.65
2019-02-25T17:53:40.168Z,47.63
2019-02-25T17:56:11.547Z,46.76
2019-02-25T17:58:44.511Z,45.25
2019-02-25T18:01:16.944Z,43.81
2019-02-25T18:03:49.292Z,43.58
2019-02-25T18:06:22.939Z,44.60
2019-02-25T18:08:55.479Z,44.18
2019-02-25T18:11:27.346Z,44.71
2019-02-25T18:13:59.061Z,45.34
2019-02-25T18:16:32.862Z,43.86
2019-02-25T18:19:03.802Z,44.24
2019-02-25T18:21:35.366Z,43.28
2019-02-25T18:24:12.171Z,43.23
2019-02-25T18:26:41.213Z,41.91
2019-02-25T18:29:15.650Z,41.11
2019-02-25T18:31:46.019Z,41.11
2019-02-25T18:34:17.506Z,42.00
2019-02-25T18:36:49.359Z,42.15
2019-02-25T18:39:23.196Z,43.87
2019-02-25T18:41:55.521Z,44.24
2019-02-25T18:44:28.459Z,42.25
2019-02-25T18:47:00.408Z,41.91
2019-02-25T18:49:32.653Z,41.91
2019-02-25T18:52:05.397Z,42.15
2019-02-25T18:54:38.933Z,42.90
2019-02-25T18:57:10.328Z,44.79
2019-02-25T18:59:41.937Z,47.23
2019-02-25T19:02:14.548Z,43.70
2019-02-25T19:04:48.030Z,46.11
2019-02-25T19:07:19.508Z,44.09
2019-02-25T19:09:51.636Z,42.62
2019-02-25T19:12:24.098Z,42.62
2019-02-25T19:14:57.616Z,42.12
2019-02-25T19:17:31.454Z,43.46
2019-02-25T19:20:02.892Z,42.39
2019-02-25T19:22:35.594Z,41.87
2019-02-25T19:25:10.103Z,41.60
2019-02-25T19:27:41.135Z,41.70
2019-02-25T19:30:13.132Z,41.54
2019-02-25T19:32:45.112Z,42.00
2019-02-25T19:35:17.207Z,46.07
2019-02-25T19:37:49.079Z,46.56
2019-02-25T19:40:22.528Z,48.58
2019-02-25T19:42:56.788Z,47.45
2019-02-25T19:45:28.069Z,47.64
2019-02-25T19:48:00.577Z,47.33
2019-02-25T19:50:34.214Z,47.21
2019-02-25T19:53:07.668Z,48.86
2019-02-25T19:55:40.965Z,47.42
2019-02-25T19:58:12.651Z,47.80
2019-02-25T20:00:44.513Z,47.89
2019-02-25T20:03:16.187Z,48.01
2019-02-25T20:05:48.925Z,49.02
2019-02-25T20:08:21.615Z,48.35
2019-02-25T20:10:54.943Z,49.95
2019-02-25T20:13:26.565Z,48.25
2019-02-25T20:16:07.316Z,50.77
2019-02-25T20:18:33.158Z,51.40
2019-02-25T20:21:06.474Z,52.40
2019-02-25T20:23:38.008Z,51.99
2019-02-25T20:26:11.339Z,51.93
2019-02-25T20:28:43.433Z,51.24
2019-02-25T20:31:16.754Z,51.13
2019-02-25T20:33:48.119Z,51.80
2019-02-25T20:36:21.413Z,50.16
2019-02-25T20:38:52.867Z,49.50
2019-02-25T20:41:26.743Z,50.95
2019-02-25T20:44:00.518Z,51.13
2019-02-25T20:46:32.754Z,51.50
2019-02-25T20:49:04.925Z,51.99
2019-02-25T20:51:36.653Z,50.77
2019-02-25T20:54:08.925Z,50.39
2019-02-25T20:56:41.593Z,50.77
2019-02-25T20:59:13.277Z,51.52
2019-02-25T21:01:46.199Z,49.61
2019-02-25T21:04:18.033Z,48.03
2019-02-25T21:06:50.736Z,47.21
2019-02-25T21:09:22.021Z,47.10
2019-02-25T21:11:54.211Z,47.01
2019-02-25T21:14:29.494Z,47.26
2019-02-25T21:17:00.999Z,47.75
2019-02-25T21:19:33.516Z,49.88
2019-02-25T21:22:06.574Z,49.71
2019-02-25T21:24:39.360Z,52.37
2019-02-25T21:27:10.893Z,53.60
2019-02-25T21:29:42.309Z,53.07
2019-02-25T21:32:17.175Z,53.48
2019-02-25T21:34:52.475Z,53.00
2019-02-25T21:37:21.347Z,53.87
2019-02-25T21:39:53.281Z,53.60
2019-02-25T21:42:26.735Z,53.89
2019-02-25T21:45:00.136Z,54.07
2019-02-25T21:47:32.827Z,54.09
2019-02-25T21:50:06.845Z,53.50
2019-02-25T21:52:38.976Z,53.93
2019-02-25T21:55:11.726Z,53.99
2019-02-25T21:57:43.403Z,54.00
2019-02-25T22:00:17.671Z,54.05
2019-02-25T22:02:50.918Z,52.89
2019-02-25T22:05:23.734Z,53.80
2019-02-25T22:07:59.097Z,52.70
2019-02-25T22:10:29.408Z,51.82
2019-02-25T22:13:04.345Z,53.38
2019-02-25T22:15:36.209Z,54.32
2019-02-25T22:18:09.316Z,53.20
2019-02-25T22:20:42.691Z,53.73
2019-02-25T22:23:14.890Z,54.75
2019-02-25T22:25:46.638Z,55.29
2019-02-25T22:28:18.403Z,55.40
2019-02-25T22:30:51.795Z,54.87
2019-02-25T22:33:27.744Z,55.11
2019-02-25T22:35:56.784Z,55.57
2019-02-25T22:38:28.207Z,55.85
2019-02-25T22:41:02.180Z,56.04
2019-02-25T22:43:33.117Z,55.85
2019-02-25T22:46:05.552Z,55.68
2019-02-25T22:48:41.991Z,55.65
2019-02-25T22:51:12.071Z,53.75
2019-02-25T22:53:44.458Z,55.15
2019-02-25T22:56:16.365Z,55.36
2019-02-25T22:58:49.525Z,55.32
2019-02-25T23:01:21.713Z,55.06
2019-02-25T23:03:55.172Z,54.53
2019-02-25T23:06:26.853Z,54.55
2019-02-25T23:08:58.498Z,55.12
2019-02-25T23:11:29.905Z,55.85
2019-02-25T23:14:01.521Z,57.39
2019-02-25T23:16:32.915Z,56.26
2019-02-25T23:19:04.623Z,56.15
2019-02-25T23:21:38.329Z,55.79
2019-02-25T23:24:10.138Z,55.61
2019-02-25T23:26:41.632Z,56.04
2019-02-25T23:29:13.254Z,56.83
2019-02-25T23:31:46.444Z,56.34
2019-02-25T23:34:20.066Z,56.16
2019-02-25T23:36:52.353Z,56.45
2019-02-25T23:39:24.793Z,56.08
2019-02-25T23:41:56.424Z,56.30
2019-02-25T23:44:28.404Z,57.48
2019-02-25T23:47:01.967Z,58.00
2019-02-25T23:49:34.276Z,57.54
2019-02-25T23:52:07.294Z,58.22
2019-02-25T23:54:39.337Z,57.78
2019-02-25T23:57:11.223Z,58.80
2019-02-25T23:59:44.458Z,57.93
